Time;durP1;ratioP1;P1;durP2;ratioP2;P2;SDS_P1;SDS_P2;PMS_P1;PMS_P2;Temp;Humidity;BMP_temperature;BMP_pressure;BME280_temperature;BME280_humidity;BME280_pressure;Samples;Min_cycle;Max_cycle;Signal;HPM_P1;HPM_P2
2022/09/04 00:02:11;;;;;;;;;6.25;6.25;;;;;17.02;52.18;99725.53;5016086;28;8839;-84
2022/09/04 00:04:40;;;;;;;;;6.00;6.00;;;;;16.97;51.99;99733.28;5015735;28;8815;-84
2022/09/04 00:07:08;;;;;;;;;7.00;6.75;;;;;16.96;52.67;99730.75;5017485;28;8832;-84
2022/09/04 00:09:36;;;;;;;;;7.00;7.00;;;;;16.94;51.82;99733.59;5015734;28;8954;-84
2022/09/04 00:12:04;;;;;;;;;7.00;6.25;;;;;16.95;52.39;99743.34;5015850;28;8820;-84
2022/09/04 00:14:32;;;;;;;;;6.00;6.00;;;;;16.92;52.04;99742.84;5015620;28;8978;-84
2022/09/04 00:17:00;;;;;;;;;6.00;6.00;;;;;16.90;52.53;99751.09;5016339;28;8836;-84
2022/09/04 00:19:28;;;;;;;;;6.00;6.00;;;;;16.88;52.47;99745.03;5015703;28;8832;-84
2022/09/04 00:21:56;;;;;;;;;7.00;7.00;;;;;16.86;52.49;99749.72;5015907;28;8824;-84
2022/09/04 00:24:24;;;;;;;;;7.00;7.00;;;;;16.84;52.37;99749.06;5015535;28;8893;-84
2022/09/04 00:26:53;;;;;;;;;7.00;6.75;;;;;16.83;52.10;99751.91;5015540;28;8838;-84
2022/09/04 00:29:21;;;;;;;;;6.00;6.00;;;;;16.81;52.57;99749.41;5015677;28;8862;-84
2022/09/04 00:31:48;;;;;;;;;6.75;6.75;;;;;16.82;52.42;99756.47;5015573;28;9581;-84
2022/09/04 00:34:16;;;;;;;;;6.50;6.50;;;;;16.86;52.01;99752.41;5015351;28;8820;-84
2022/09/04 00:36:44;;;;;;;;;6.00;6.00;;;;;16.84;52.57;99757.13;5015267;28;8984;-84
2022/09/04 00:39:16;;;;;;;;;3.75;3.75;;;;;16.80;52.84;99761.13;5015192;28;8819;-84
2022/09/04 00:41:45;;;;;;;;;6.75;6.00;;;;;16.74;52.92;99767.22;5015371;28;8854;-85
2022/09/04 00:44:13;;;;;;;;;6.25;6.25;;;;;16.65;53.29;99762.78;5015268;28;8835;-85
2022/09/04 00:46:41;;;;;;;;;6.50;6.50;;;;;16.57;52.77;99768.16;5014868;28;9603;-85
2022/09/04 00:49:10;;;;;;;;;5.50;4.00;;;;;16.52;53.22;99769.66;5015171;28;8831;-85
2022/09/04 00:51:39;;;;;;;;;6.50;6.25;;;;;16.49;52.89;99764.63;5015858;28;8842;-84
2022/09/04 00:54:06;;;;;;;;;6.50;5.00;;;;;16.46;53.06;99764.94;5015207;28;9564;-84
2022/09/04 00:56:35;;;;;;;;;3.25;3.25;;;;;16.44;53.53;99769.63;5015937;28;8836;-84
2022/09/04 00:59:02;;;;;;;;;6.00;5.50;;;;;16.43;53.17;99771.50;5015516;28;8857;-84
2022/09/04 01:01:30;;;;;;;;;9.00;8.00;;;;;16.42;52.93;99768.97;5014508;28;8847;-84
2022/09/04 01:04:03;;;;;;;;;6.75;6.00;;;;;16.42;53.17;99775.16;5015090;28;8893;-84
2022/09/04 01:06:31;;;;;;;;;10.00;9.00;;;;;16.41;52.67;99778.88;5015630;28;8878;-84
2022/09/04 01:09:00;;;;;;;;;6.25;6.25;;;;;16.40;53.39;99771.81;5015434;28;8841;-84
2022/09/04 01:11:27;;;;;;;;;7.00;6.00;;;;;16.41;52.84;99775.34;5015269;28;8828;-84
2022/09/04 01:13:55;;;;;;;;;4.00;4.00;;;;;16.41;53.46;99772.66;5015412;28;8920;-84
2022/09/04 01:16:23;;;;;;;;;5.00;5.00;;;;;16.41;52.99;99778.88;5015574;28;8836;-84
2022/09/04 01:18:51;;;;;;;;;6.00;6.00;;;;;16.42;52.85;99785.91;5015304;28;8900;-84
2022/09/04 01:21:19;;;;;;;;;4.00;4.00;;;;;16.41;52.84;99781.56;5015092;28;8824;-84
2022/09/04 01:23:47;;;;;;;;;8.00;7.00;;;;;16.40;52.98;99779.06;5015067;28;8889;-84
2022/09/04 01:26:15;;;;;;;;;8.50;8.00;;;;;16.38;52.86;99784.56;5015228;28;8861;-84
2022/09/04 01:28:42;;;;;;;;;7.50;7.00;;;;;16.36;53.01;99775.81;5015253;28;8852;-84
2022/09/04 01:31:10;;;;;;;;;6.00;6.00;;;;;16.32;52.89;99777.13;5015254;28;8827;-84
2022/09/04 01:33:38;;;;;;;;;8.50;8.50;;;;;16.29;53.02;99777.47;5014880;28;8827;-84
2022/09/04 01:36:06;;;;;;;;;8.50;7.50;;;;;16.25;53.25;99781.47;5015089;28;8832;-84
2022/09/04 01:38:34;;;;;;;;;9.00;8.50;;;;;16.23;53.10;99779.94;5014988;28;9545;-84
2022/09/04 01:41:02;;;;;;;;;7.00;5.00;;;;;16.19;53.17;99779.41;5014479;28;8848;-84
2022/09/04 01:43:30;;;;;;;;;8.00;7.00;;;;;16.17;53.21;99781.44;5015052;28;8816;-84
2022/09/04 01:45:58;;;;;;;;;6.50;6.00;;;;;16.14;53.29;99782.78;5014923;28;8826;-84
2022/09/04 01:48:26;;;;;;;;;7.00;6.00;;;;;16.14;53.93;99785.47;5014785;28;8900;-84
2022/09/04 01:50:53;;;;;;;;;6.00;5.50;;;;;16.11;53.78;99789.31;5014972;28;8920;-84
2022/09/04 01:53:21;;;;;;;;;5.00;5.00;;;;;16.10;53.89;99786.75;5014558;28;8820;-84
2022/09/04 01:55:49;;;;;;;;;4.00;4.00;;;;;16.09;53.88;99788.59;5014865;28;8966;-84
2022/09/04 01:58:17;;;;;;;;;7.00;6.25;;;;;16.06;53.74;99794.31;5014806;28;8975;-84
2022/09/04 02:00:45;;;;;;;;;6.00;5.00;;;;;16.05;53.48;99792.63;5014756;28;8966;-85
2022/09/04 02:03:15;;;;;;;;;6.00;6.00;;;;;16.03;53.67;99789.25;5014946;28;9525;-84
2022/09/04 02:05:47;;;;;;;;;7.50;7.50;;;;;16.02;54.13;99792.97;5013482;28;9583;-84
2022/09/04 02:08:14;;;;;;;;;6.75;6.75;;;;;16.00;53.62;99791.44;5014401;28;8995;-84
2022/09/04 02:10:42;;;;;;;;;6.00;6.00;;;;;15.96;53.56;99788.22;5014276;28;9596;-84
2022/09/04 02:13:11;;;;;;;;;4.00;4.00;;;;;15.91;54.09;99795.91;5014755;28;8843;-84
2022/09/04 02:15:41;;;;;;;;;5.50;5.50;;;;;15.89;54.50;99802.44;5014518;28;8840;-84
2022/09/04 02:18:10;;;;;;;;;5.50;5.00;;;;;15.85;54.34;99801.06;5014504;28;8836;-84
2022/09/04 02:20:38;;;;;;;;;8.50;7.00;;;;;15.81;54.26;99799.69;5014423;28;8836;-84
2022/09/04 02:23:05;;;;;;;;;6.75;6.00;;;;;15.77;54.49;99801.03;5014317;28;8823;-84
2022/09/04 02:25:33;;;;;;;;;9.00;8.00;;;;;15.74;54.06;99807.56;5014486;28;8978;-84
2022/09/04 02:28:01;;;;;;;;;9.00;8.50;;;;;15.72;53.96;99811.38;5014169;28;9482;-84
2022/09/04 02:30:29;;;;;;;;;5.00;4.50;;;;;15.71;54.28;99805.16;5014721;28;8944;-84
2022/09/04 02:32:56;;;;;;;;;7.00;7.00;;;;;15.71;54.07;99809.72;5013977;28;8954;-84
2022/09/04 02:35:24;;;;;;;;;6.25;6.25;;;;;15.70;54.71;99811.53;5013866;28;8830;-84
2022/09/04 02:37:52;;;;;;;;;4.00;4.00;;;;;15.71;54.42;99815.91;5014393;28;8831;-84
2022/09/04 02:40:20;;;;;;;;;4.00;4.00;;;;;15.71;54.20;99813.22;5014426;28;9640;-84
2022/09/04 02:42:48;;;;;;;;;6.00;6.00;;;;;15.72;54.00;99816.75;5014435;28;8970;-84
2022/09/04 02:45:16;;;;;;;;;3.00;3.00;;;;;15.73;54.31;99823.81;5014184;28;8807;-84
2022/09/04 02:47:44;;;;;;;;;4.00;4.00;;;;;15.72;54.41;99822.97;5014501;28;8858;-84
2022/09/04 02:50:12;;;;;;;;;6.00;6.00;;;;;15.75;54.05;99827.16;5014557;28;8828;-84
2022/09/04 02:52:40;;;;;;;;;6.75;6.50;;;;;15.71;54.20;99832.00;5014401;28;8946;-84
2022/09/04 02:55:08;;;;;;;;;7.00;6.50;;;;;15.68;54.78;99834.16;5014201;28;8905;-84
2022/09/04 02:57:38;;;;;;;;;4.00;4.00;;;;;15.63;54.30;99828.44;5014038;28;8975;-84
2022/09/04 03:00:08;;;;;;;;;5.00;5.00;;;;;15.58;54.44;99830.75;5029225;28;8852;-84
2022/09/04 03:02:35;;;;;;;;;6.50;6.50;;;;;15.53;54.45;99830.34;5013887;28;9512;-84
2022/09/04 03:05:03;;;;;;;;;7.00;6.75;;;;;15.49;55.04;99829.00;5013410;28;8820;-84
2022/09/04 03:07:31;;;;;;;;;7.00;7.00;;;;;15.47;54.94;99828.31;5013943;28;8824;-84
2022/09/04 03:09:59;;;;;;;;;6.25;6.25;;;;;15.46;54.57;99837.38;5013680;28;8952;-84
2022/09/04 03:12:27;;;;;;;;;7.00;7.00;;;;;15.46;54.71;99842.75;5013492;28;9527;-84
2022/09/04 03:14:54;;;;;;;;;4.00;4.00;;;;;15.46;54.77;99840.88;5013874;28;9489;-84
2022/09/04 03:17:22;;;;;;;;;4.00;4.00;;;;;15.47;55.06;99844.44;5016875;28;8914;-84
2022/09/04 03:19:50;;;;;;;;;6.25;6.00;;;;;15.44;54.85;99844.72;5016354;28;8835;-84
2022/09/04 03:22:17;;;;;;;;;7.00;7.00;;;;;15.40;55.28;99846.88;5017180;28;8835;-84
2022/09/04 03:24:45;;;;;;;;;5.50;5.50;;;;;15.35;55.46;99841.16;5016757;28;8844;-84
2022/09/04 03:27:13;;;;;;;;;6.25;6.00;;;;;15.31;55.22;99844.25;5016768;28;8823;-84
2022/09/04 03:29:41;;;;;;;;;9.25;8.00;;;;;15.26;55.54;99850.06;5018694;28;8978;-84
2022/09/04 03:32:08;;;;;;;;;5.50;5.00;;;;;15.25;55.33;99851.06;5017096;28;8823;-84
2022/09/04 03:34:43;;;;;;;;;3.00;3.00;;;;;15.24;55.31;99852.06;5016873;28;8834;-84
2022/09/04 03:37:11;;;;;;;;;10.25;8.00;;;;;15.25;54.99;99850.22;5016767;28;8839;-84
2022/09/04 03:39:39;;;;;;;;;6.00;5.00;;;;;15.24;54.88;99856.59;5016522;28;8832;-84
2022/09/04 03:42:07;;;;;;;;;6.00;6.00;;;;;15.24;55.66;99856.59;5016476;28;8851;-84
2022/09/04 03:44:35;;;;;;;;;7.50;7.50;;;;;15.22;55.41;99856.75;5016786;28;8948;-84
2022/09/04 03:47:03;;;;;;;;;4.00;4.00;;;;;15.18;55.21;99863.41;5016172;28;8842;-84
2022/09/04 03:49:30;;;;;;;;;1.00;1.00;;;;;15.17;55.60;99866.25;5016651;28;8954;-84
2022/09/04 03:51:58;;;;;;;;;7.50;6.25;;;;;15.16;55.49;99865.41;5016224;28;8840;-84
2022/09/04 03:54:27;;;;;;;;;8.50;7.00;;;;;15.15;55.71;99858.34;5016414;28;8975;-84
2022/09/04 03:56:55;;;;;;;;;9.25;9.00;;;;;15.15;55.59;99863.72;5031732;28;8842;-84
2022/09/04 03:59:24;;;;;;;;;5.50;5.00;;;;;15.10;55.50;99867.84;5016710;28;8874;-84
2022/09/04 04:01:51;;;;;;;;;8.00;6.75;;;;;15.00;55.91;99867.06;5016228;28;8838;-84
2022/09/04 04:04:19;;;;;;;;;5.75;5.75;;;;;14.92;55.99;99865.16;5016147;28;8828;-84
2022/09/04 04:06:47;;;;;;;;;6.75;6.75;;;;;14.87;55.92;99855.88;5016055;28;8814;-84
2022/09/04 04:09:17;;;;;;;;;8.00;6.75;;;;;14.82;55.89;99863.53;5016209;28;8953;-84
2022/09/04 04:11:45;;;;;;;;;6.25;6.25;;;;;14.79;56.67;99866.53;5016307;28;8827;-84
2022/09/04 04:14:13;;;;;;;;;7.25;5.75;;;;;14.76;56.44;99870.34;5015897;28;8832;-84
2022/09/04 04:16:41;;;;;;;;;9.25;9.25;;;;;14.73;56.55;99870.63;5016099;28;8938;-84
2022/09/04 04:19:10;;;;;;;;;9.25;8.00;;;;;14.72;56.38;99874.31;5015717;28;9396;-84
2022/09/04 04:21:38;;;;;;;;;9.00;7.50;;;;;14.73;56.46;99872.47;5016076;28;8831;-84
2022/09/04 04:24:06;;;;;;;;;9.00;7.50;;;;;14.72;56.06;99871.63;5015729;28;8978;-84
2022/09/04 04:26:37;;;;;;;;;8.00;8.00;;;;;14.73;55.84;99870.63;5015863;28;8831;-84
2022/09/04 04:29:07;;;;;;;;;9.00;8.00;;;;;14.75;56.38;99867.81;5014713;28;8928;-84
2022/09/04 04:31:35;;;;;;;;;9.00;8.00;;;;;14.79;56.12;99874.56;5015212;28;8954;-84
2022/09/04 04:34:03;;;;;;;;;6.00;6.00;;;;;14.81;56.55;99873.41;5014945;28;8818;-84
2022/09/04 04:36:34;;;;;;;;;7.00;7.00;;;;;14.81;56.06;99878.75;5015584;28;8820;-84
2022/09/04 04:39:02;;;;;;;;;6.25;6.25;;;;;14.79;56.52;99886.13;5030747;28;8831;-84
2022/09/04 04:41:30;;;;;;;;;4.00;3.75;;;;;14.77;56.50;99888.09;5015750;28;8956;-84
2022/09/04 04:43:58;;;;;;;;;4.00;4.00;;;;;14.74;56.21;99891.09;5016658;28;8839;-85
2022/09/04 04:46:26;;;;;;;;;7.00;6.75;;;;;14.73;56.48;99889.38;5016254;28;8819;-84
2022/09/04 04:48:53;;;;;;;;;6.00;6.00;;;;;14.72;56.84;99897.59;5015780;28;8823;-84
2022/09/04 04:51:21;;;;;;;;;7.00;6.00;;;;;14.70;56.51;99899.56;5015879;28;8946;-84
2022/09/04 04:53:49;;;;;;;;;9.75;8.50;;;;;14.64;57.15;99901.00;5015887;28;8954;-84
2022/09/04 04:56:20;;;;;;;;;9.00;8.00;;;;;14.61;56.76;99905.81;5016065;28;8843;-84
2022/09/04 04:58:47;;;;;;;;;8.00;6.75;;;;;14.61;56.75;99908.50;5016121;28;8945;-84
2022/09/04 05:01:15;;;;;;;;;6.50;6.50;;;;;14.59;57.20;99915.84;5015565;28;8824;-85
2022/09/04 05:03:43;;;;;;;;;9.25;7.50;;;;;14.60;56.75;99918.41;5015535;28;8954;-84
2022/09/04 05:06:11;;;;;;;;;9.50;9.00;;;;;14.61;57.21;99913.88;5015878;28;8838;-85
2022/09/04 05:08:39;;;;;;;;;8.75;8.00;;;;;14.64;56.90;99917.09;5015694;28;8824;-84
2022/09/04 05:11:08;;;;;;;;;9.00;9.00;;;;;14.68;56.58;99915.81;5015558;28;8840;-84
2022/09/04 05:13:36;;;;;;;;;10.00;9.00;;;;;14.74;56.78;99919.72;5015808;28;8851;-84
2022/09/04 05:16:04;;;;;;;;;6.25;6.25;;;;;14.81;56.97;99923.50;5015255;28;8839;-84
2022/09/04 05:18:36;;;;;;;;;9.00;8.00;;;;;14.81;56.50;99921.66;5014737;28;8804;-83
2022/09/04 05:21:04;;;;;;;;;10.75;9.75;;;;;14.82;56.39;99928.72;5015042;28;8846;-84
2022/09/04 05:23:32;;;;;;;;;10.00;9.25;;;;;14.83;56.56;99930.41;5015035;28;8950;-84
2022/09/04 05:25:59;;;;;;;;;7.50;7.00;;;;;14.85;56.60;99932.94;5015665;28;8966;-84
2022/09/04 05:28:27;;;;;;;;;9.00;6.75;;;;;14.90;56.46;99944.06;5015286;28;8868;-84
2022/09/04 05:30:55;;;;;;;;;10.50;9.00;;;;;14.98;56.54;99934.28;5014704;28;8828;-84
2022/09/04 05:33:23;;;;;;;;;8.50;7.50;;;;;15.10;55.87;99948.34;5014974;28;8843;-84
2022/09/04 05:35:51;;;;;;;;;6.25;6.00;;;;;15.21;56.14;99940.91;5014895;28;8823;-84
2022/09/04 05:38:20;;;;;;;;;8.00;6.75;;;;;15.34;55.74;99948.63;5014628;28;8824;-84
2022/09/04 05:40:47;;;;;;;;;5.50;5.50;;;;;15.45;55.50;99943.88;5014449;28;9675;-84
2022/09/04 05:43:15;;;;;;;;;9.25;9.00;;;;;15.55;55.14;99954.53;5014922;28;9493;-84
2022/09/04 05:45:45;;;;;;;;;11.25;9.50;;;;;15.62;55.12;99951.09;5015776;28;8864;-84
2022/09/04 05:48:13;;;;;;;;;8.50;7.50;;;;;15.72;54.66;99956.38;5014986;28;9489;-84
2022/09/04 05:50:40;;;;;;;;;8.00;8.00;;;;;15.84;55.36;99963.22;5014688;28;8812;-84
2022/09/04 05:53:08;;;;;;;;;9.25;9.25;;;;;15.98;54.41;99962.63;5014640;28;9554;-84
2022/09/04 05:55:36;;;;;;;;;8.50;8.00;;;;;16.11;54.25;99968.47;5014394;28;8848;-84
2022/09/04 05:58:04;;;;;;;;;8.00;7.00;;;;;16.28;54.53;99968.44;5014473;28;8817;-84
2022/09/04 06:00:31;;;;;;;;;5.50;3.50;;;;;16.42;54.19;99968.72;5014729;28;8966;-84
2022/09/04 06:02:59;;;;;;;;;9.00;7.00;;;;;16.58;53.52;99963.47;5014172;28;8930;-84
2022/09/04 06:05:27;;;;;;;;;8.75;8.50;;;;;16.75;53.32;99967.91;5014445;28;8836;-84
2022/09/04 06:07:55;;;;;;;;;9.25;8.50;;;;;16.90;53.29;99970.84;5014252;28;8815;-84
2022/09/04 06:10:23;;;;;;;;;9.00;9.00;;;;;17.04;52.86;99971.06;5014495;28;8816;-84
2022/09/04 06:12:51;;;;;;;;;12.50;10.00;;;;;17.18;53.11;99975.84;5014371;28;8850;-84
2022/09/04 06:15:19;;;;;;;;;7.50;7.50;;;;;17.33;52.21;99982.25;5014891;28;8970;-84
2022/09/04 06:17:47;;;;;;;;;12.75;12.50;;;;;17.46;52.58;99987.22;5014000;28;8824;-84
2022/09/04 06:20:15;;;;;;;;;9.00;8.50;;;;;17.61;52.51;99990.97;5013885;28;8831;-84
2022/09/04 06:22:42;;;;;;;;;8.00;7.50;;;;;17.72;51.77;99986.09;5014363;28;8831;-84
2022/09/04 06:25:15;;;;;;;;;5.50;4.00;;;;;17.88;51.93;99990.66;5013922;28;8848;-84
2022/09/04 06:27:43;;;;;;;;;9.00;7.00;;;;;18.03;51.55;99997.06;5014131;28;8844;-84
2022/09/04 06:30:10;;;;;;;;;9.75;9.00;;;;;18.20;51.82;99988.81;5014301;28;8940;-83
2022/09/04 06:32:39;;;;;;;;;9.25;9.25;;;;;18.48;51.16;99987.47;5014335;28;8951;-84
2022/09/04 06:35:08;;;;;;;;;9.40;9.40;;;;;18.93;50.12;99990.41;5013802;28;9585;-84
2022/09/04 06:37:37;;;;;;;;;7.00;7.00;;;;;19.13;49.79;99994.34;5014052;28;8851;-84
2022/09/04 06:40:04;;;;;;;;;11.00;11.00;;;;;19.21;49.77;99994.34;5013577;28;8835;-84
2022/09/04 06:42:32;;;;;;;;;7.80;7.60;;;;;19.28;49.94;99989.13;5013593;28;8839;-84
2022/09/04 06:45:00;;;;;;;;;7.00;7.00;;;;;19.37;49.95;99991.59;5014337;28;8828;-84
2022/09/04 06:47:30;;;;;;;;;9.20;8.00;;;;;19.48;49.56;99987.63;5013752;28;8819;-84
2022/09/04 06:49:59;;;;;;;;;10.60;8.20;;;;;19.56;50.06;99991.16;5013712;28;8811;-84
2022/09/04 06:52:27;;;;;;;;;8.40;8.40;;;;;19.66;49.97;99997.16;5017302;28;8974;-84
2022/09/04 06:54:55;;;;;;;;;8.20;7.80;;;;;19.75;49.44;99995.25;5017326;28;8816;-84
2022/09/04 06:57:23;;;;;;;;;4.40;4.40;;;;;19.85;49.28;99991.31;5016736;28;8851;-84
2022/09/04 06:59:51;;;;;;;;;6.60;6.60;;;;;19.95;49.83;99991.88;5016743;28;8824;-84
2022/09/04 07:02:18;;;;;;;;;7.00;7.00;;;;;20.04;49.64;99992.69;5017083;28;8891;-84
2022/09/04 07:04:47;;;;;;;;;5.00;5.00;;;;;20.10;49.53;99995.53;5016944;28;8823;-84
2022/09/04 07:07:14;;;;;;;;;5.00;5.00;;;;;20.19;49.36;99991.72;5017113;28;8823;-84
2022/09/04 07:09:42;;;;;;;;;8.00;8.00;;;;;20.26;49.68;99987.28;5016698;28;8831;-84
2022/09/04 07:12:10;;;;;;;;;7.20;7.00;;;;;20.32;49.54;100000.06;5017239;28;8966;-85
2022/09/04 07:14:38;;;;;;;;;4.20;4.20;;;;;20.38;49.91;100007.47;5016879;28;8846;-84
2022/09/04 07:17:06;;;;;;;;;6.20;5.40;;;;;20.45;50.10;100003.00;5017216;28;8835;-84
2022/09/04 07:19:33;;;;;;;;;7.20;5.00;;;;;20.50;49.92;100003.31;5016654;28;8910;-83
2022/09/04 07:22:02;;;;;;;;;4.20;4.00;;;;;20.53;50.15;100008.34;5016984;28;8974;-84
2022/09/04 07:24:31;;;;;;;;;6.00;5.80;;;;;20.58;50.39;100005.09;5016797;28;8954;-84
2022/09/04 07:26:59;;;;;;;;;4.40;4.40;;;;;20.65;50.50;100011.44;5016785;28;8815;-84
2022/09/04 07:29:28;;;;;;;;;4.00;4.00;;;;;20.74;50.38;100017.41;5016776;28;8978;-84
2022/09/04 07:31:56;;;;;;;;;4.60;4.60;;;;;20.82;50.34;100011.91;5017196;28;8963;-84
2022/09/04 07:34:23;;;;;;;;;4.80;4.80;;;;;20.90;50.81;100017.28;5016805;28;8811;-84
2022/09/04 07:36:53;;;;;;;;;5.00;5.00;;;;;20.96;50.97;100018.44;5016531;28;8839;-84
2022/09/04 07:39:20;;;;;;;;;4.40;4.00;;;;;21.03;51.04;100024.78;5016346;28;8912;-84
2022/09/04 07:41:48;;;;;;;;;4.00;4.00;;;;;21.12;50.78;100027.19;5016707;28;8831;-84
2022/09/04 07:44:16;;;;;;;;;7.80;7.20;;;;;21.24;50.28;100030.25;5016977;28;8824;-84
2022/09/04 07:46:45;;;;;;;;;5.40;5.40;;;;;21.33;50.58;100024.56;5015845;28;8850;-85
2022/09/04 07:49:13;;;;;;;;;6.40;5.20;;;;;21.46;49.85;100032.03;5016907;28;8857;-84
2022/09/04 07:51:41;;;;;;;;;5.00;4.80;;;;;21.56;49.99;100022.56;5016336;28;8815;-85
2022/09/04 07:54:10;;;;;;;;;5.20;5.20;;;;;21.66;50.09;100031.28;5016662;28;8950;-85
2022/09/04 07:56:50;;;;;;;;;4.40;4.40;;;;;21.81;49.72;100029.38;5016365;28;8838;-85
2022/09/04 07:59:19;;;;;;;;;5.80;5.80;;;;;21.93;49.51;100032.44;5017139;28;8863;-85
2022/09/04 08:01:47;;;;;;;;;6.20;5.00;;;;;22.07;49.38;100036.94;5015937;28;8836;-84
2022/09/04 08:04:14;;;;;;;;;5.00;4.80;;;;;22.19;49.42;100046.25;5015581;28;8883;-85
2022/09/04 08:06:43;;;;;;;;;6.20;5.80;;;;;22.29;49.39;100041.34;5016145;28;8850;-85
2022/09/04 08:09:10;;;;;;;;;5.80;5.20;;;;;22.39;49.56;100052.72;5015741;28;8951;-85
2022/09/04 08:11:38;;;;;;;;;2.00;1.00;;;;;22.51;49.01;100052.03;5015693;28;8856;-85
2022/09/04 08:14:06;;;;;;;;;4.20;4.20;;;;;22.66;48.88;100041.09;5016521;28;8820;-85
2022/09/04 08:16:34;;;;;;;;;5.20;5.20;;;;;22.82;48.41;100049.78;5015080;28;8940;-87
2022/09/04 08:19:02;;;;;;;;;3.80;3.20;;;;;22.97;48.11;100044.25;5015426;28;9620;-87
2022/09/04 08:21:29;;;;;;;;;4.60;4.60;;;;;23.11;48.52;100046.00;5015454;28;9604;-86
2022/09/04 08:23:57;;;;;;;;;5.00;4.60;;;;;23.19;48.33;100054.03;5015768;28;8979;-87
2022/09/04 08:26:26;;;;;;;;;5.00;5.00;;;;;23.27;47.96;100049.28;5015414;28;9577;-87
2022/09/04 08:28:56;;;;;;;;;4.60;4.60;;;;;23.35;48.19;100048.28;5015315;28;8824;-87
2022/09/04 08:31:23;;;;;;;;;5.00;5.00;;;;;23.49;47.88;100060.91;5014660;28;8843;-88
2022/09/04 08:33:51;;;;;;;;;4.00;4.00;;;;;23.63;47.78;100051.75;5031185;28;8838;-87
2022/09/04 08:36:20;;;;;;;;;4.60;4.60;;;;;23.77;47.74;100050.78;5016052;28;8820;-87
2022/09/04 08:38:48;;;;;;;;;4.40;4.20;;;;;23.89;47.80;100054.63;5015357;28;8977;-87
2022/09/04 08:41:15;;;;;;;;;5.20;2.80;;;;;24.04;46.85;100058.84;5015575;28;9601;-87
2022/09/04 08:43:43;;;;;;;;;5.00;5.00;;;;;24.16;47.08;100053.66;5015557;28;8828;-87
2022/09/04 08:46:12;;;;;;;;;2.00;2.00;;;;;24.28;46.92;100050.09;5015004;28;8958;-87
2022/09/04 08:48:40;;;;;;;;;5.00;5.00;;;;;24.42;47.17;100059.16;5016052;28;8928;-86
2022/09/04 08:51:08;;;;;;;;;5.00;4.60;;;;;24.52;46.17;100060.44;5015257;28;8892;-87
2022/09/04 08:53:36;;;;;;;;;6.00;6.00;;;;;24.61;46.66;100061.94;5014500;28;8821;-87
2022/09/04 08:56:05;;;;;;;;;3.40;3.40;;;;;24.68;46.02;100056.47;5016414;28;8834;-87
2022/09/04 08:58:33;;;;;;;;;5.80;5.60;;;;;24.78;46.09;100065.03;5015874;28;8848;-87
2022/09/04 09:01:02;;;;;;;;;5.00;5.00;;;;;24.93;46.15;100061.06;5016910;28;9517;-87
2022/09/04 09:03:29;;;;;;;;;5.00;5.00;;;;;25.07;45.71;100054.56;5016089;28;9462;-87
2022/09/04 09:05:58;;;;;;;;;5.00;4.60;;;;;25.25;45.75;100053.94;5016042;28;8963;-87
2022/09/04 09:08:27;;;;;;;;;3.00;3.00;;;;;25.42;45.43;100063.31;5015671;28;8947;-87
2022/09/04 09:10:59;;;;;;;;;5.40;5.00;;;;;25.54;45.46;100067.91;5026620;28;8846;-87
2022/09/04 09:13:27;;;;;;;;;6.00;5.40;;;;;25.74;45.09;100064.03;5019454;28;8823;-88
2022/09/04 09:15:54;;;;;;;;;5.20;5.20;;;;;25.93;44.97;100063.16;5015577;28;8823;-88
2022/09/04 09:18:22;;;;;;;;;6.20;6.00;;;;;26.07;45.04;100067.50;5015117;28;8830;-88
2022/09/04 09:20:50;;;;;;;;;6.20;6.20;;;;;26.11;44.58;100070.63;5015279;28;8824;-87
2022/09/04 09:23:18;;;;;;;;;7.00;7.00;;;;;26.10;44.59;100074.41;5014617;28;8946;-87
2022/09/04 09:25:46;;;;;;;;;7.00;6.00;;;;;26.14;44.69;100065.56;5014789;28;8888;-87
2022/09/04 09:28:14;;;;;;;;;4.80;4.80;;;;;26.28;44.32;100067.13;5015167;28;8946;-87
2022/09/04 09:30:43;;;;;;;;;6.00;6.00;;;;;26.43;44.14;100072.31;5014849;28;8985;-87
2022/09/04 09:33:11;;;;;;;;;4.20;3.80;;;;;26.54;44.20;100063.44;5014257;28;8903;-87
2022/09/04 09:35:40;;;;;;;;;6.40;6.40;;;;;26.65;44.07;100063.56;5013976;28;8963;-88
2022/09/04 09:38:08;;;;;;;;;8.00;8.00;;;;;26.74;43.99;100056.78;5014285;28;8954;-88
2022/09/04 09:40:38;;;;;;;;;6.00;5.60;;;;;26.83;43.99;100058.16;5014528;28;8954;-88
2022/09/04 09:43:08;;;;;;;;;5.60;3.40;;;;;26.89;44.02;100054.53;5014199;28;8823;-87
2022/09/04 09:45:36;;;;;;;;;6.80;6.80;;;;;26.99;43.31;100057.59;5014391;28;8850;-88
2022/09/04 09:48:04;;;;;;;;;5.60;5.60;;;;;27.11;43.60;100047.59;5013804;28;8819;-88
2022/09/04 09:50:37;;;;;;;;;6.20;6.00;;;;;27.28;43.44;100054.19;5014443;28;8848;-88
2022/09/04 09:53:05;;;;;;;;;5.60;5.60;;;;;27.52;42.82;100050.53;5014155;28;8842;-88
2022/09/04 09:55:33;;;;;;;;;6.40;6.00;;;;;27.83;42.71;100047.66;5012853;28;8843;-87
2022/09/04 09:58:00;;;;;;;;;6.80;6.00;;;;;28.44;42.06;100044.72;5013831;28;8868;-88
2022/09/04 10:00:28;;;;;;;;;6.20;3.60;;;;;29.22;40.55;100043.38;5013894;28;8808;-88
2022/09/04 10:02:56;;;;;;;;;4.00;4.00;;;;;29.94;39.92;100051.06;5014139;28;8826;-87
2022/09/04 10:05:23;;;;;;;;;7.40;6.20;;;;;30.57;38.74;100049.78;5013879;28;8836;-87
2022/09/04 10:07:51;;;;;;;;;7.00;5.00;;;;;31.29;38.00;100048.84;5016377;28;8979;-87
2022/09/04 10:10:19;;;;;;;;;6.60;6.00;;;;;31.96;37.61;100042.91;5021707;28;8924;-88
2022/09/04 10:12:48;;;;;;;;;6.00;5.20;;;;;32.40;36.80;100047.25;5021678;28;8827;-87
2022/09/04 10:15:16;;;;;;;;;5.60;5.00;;;;;32.14;37.16;100048.06;5019284;28;8823;-88
2022/09/04 10:17:44;;;;;;;;;6.00;6.00;;;;;31.90;37.74;100046.69;5015848;28;8901;-87
2022/09/04 10:20:12;;;;;;;;;5.40;5.40;;;;;31.46;39.11;100049.63;5019545;28;8856;-88
2022/09/04 10:22:41;;;;;;;;;5.40;5.40;;;;;30.71;39.91;100059.44;5017607;28;8824;-87
2022/09/04 10:25:09;;;;;;;;;6.60;5.60;;;;;30.08;41.15;100060.69;5017429;28;8942;-88
2022/09/04 10:27:38;;;;;;;;;10.40;8.80;;;;;30.30;40.46;100059.75;5018790;28;8840;-88
2022/09/04 10:30:10;;;;;;;;;6.40;5.20;;;;;31.16;39.03;100060.19;5017721;28;8908;-88
2022/09/04 10:32:38;;;;;;;;;6.80;6.20;;;;;32.12;38.04;100047.50;5017217;28;8828;-87
2022/09/04 10:35:08;;;;;;;;;4.00;3.80;;;;;32.53;37.42;100052.34;5017091;28;8855;-88
2022/09/04 10:37:36;;;;;;;;;7.40;7.40;;;;;32.25;37.58;100054.56;5017274;28;8827;-88
2022/09/04 10:42:49;;;;;;;;;6.00;5.80;;;;;30.84;39.79;100061.84;5016816;28;8978;-88
2022/09/04 10:45:16;;;;;;;;;5.40;5.40;;;;;30.20;40.79;100059.59;5017681;28;8966;-87
2022/09/04 10:47:44;;;;;;;;;6.00;6.00;;;;;29.87;41.49;100059.41;5017255;28;8859;-87
2022/09/04 10:50:12;;;;;;;;;7.00;7.00;;;;;29.99;41.29;100060.22;5017060;28;8823;-88
2022/09/04 10:52:40;;;;;;;;;7.60;7.60;;;;;30.75;39.67;100055.94;5016797;28;8816;-87
2022/09/04 10:55:09;;;;;;;;;6.60;6.40;;;;;30.93;39.90;100055.69;5016855;28;8897;-87
2022/09/04 10:57:36;;;;;;;;;7.00;7.00;;;;;30.55;40.19;100057.47;5016497;28;8816;-87
2022/09/04 11:00:06;;;;;;;;;6.00;6.00;;;;;30.67;39.92;100061.03;5016419;28;8965;-87
2022/09/04 11:02:34;;;;;;;;;6.40;6.20;;;;;30.58;39.98;100061.63;5016108;28;9458;-87
2022/09/04 11:05:02;;;;;;;;;7.00;6.00;;;;;31.17;39.11;100051.69;5016301;28;8866;-87
2022/09/04 11:07:29;;;;;;;;;8.80;7.00;;;;;32.16;38.01;100050.56;5016749;28;9494;-87
2022/09/04 11:09:57;;;;;;;;;7.20;7.00;;;;;33.08;37.00;100039.03;5017150;28;8832;-86
2022/09/04 11:12:25;;;;;;;;;8.00;7.40;;;;;33.93;35.84;100031.28;5016064;28;8820;-88
2022/09/04 11:14:53;;;;;;;;;9.00;8.60;;;;;34.69;34.82;100035.03;5016690;28;8848;-89
2022/09/04 11:17:20;;;;;;;;;6.00;6.00;;;;;35.12;34.37;100040.06;5016293;28;9660;-89
2022/09/04 11:19:50;;;;;;;;;6.00;6.00;;;;;34.93;34.63;100036.19;5016657;28;8843;-88
2022/09/04 11:22:19;;;;;;;;;7.00;7.00;;;;;34.62;34.58;100045.56;5019455;28;8820;-88
2022/09/04 11:24:47;;;;;;;;;7.20;7.00;;;;;33.66;36.09;100049.94;5033569;28;8857;-86
2022/09/04 11:27:15;;;;;;;;;6.00;5.00;;;;;32.81;37.44;100049.34;5029361;28;8828;-88
2022/09/04 11:29:42;;;;;;;;;7.60;7.60;;;;;33.10;37.00;100036.88;5029945;28;8860;-85
2022/09/04 11:32:11;;;;;;;;;6.60;5.60;;;;;34.00;35.54;100036.56;5029717;28;8855;-85
2022/09/04 11:34:38;;;;;;;;;7.00;6.80;;;;;34.78;34.07;100041.72;5043293;28;8842;-85
2022/09/04 11:37:06;;;;;;;;;8.60;8.00;;;;;35.28;34.13;100033.41;5026156;28;8950;-85
2022/09/04 11:39:34;;;;;;;;;6.80;6.60;;;;;35.29;34.12;100037.81;5029886;28;8839;-85
2022/09/04 11:42:02;;;;;;;;;7.00;7.00;;;;;35.75;33.33;100031.91;5031476;28;8839;-85
2022/09/04 11:44:30;;;;;;;;;8.60;8.00;;;;;36.38;32.64;100031.88;5028784;28;8863;-86
2022/09/04 11:46:59;;;;;;;;;7.00;7.00;;;;;36.88;31.74;100028.69;5029544;28;8823;-85